sensor_id;sensor_type;location;lat;lon;timestamp;pressure;altitude;pressure_sealevel;temperature;humidity
41513;BME280;27244;59.940;30.280;2023-08-08T00:01:55;100174.22;;;26.27;54.01
41513;BME280;27244;59.940;30.280;2023-08-08T00:04:22;100176.25;;;26.27;53.52
41513;BME280;27244;59.940;30.280;2023-08-08T00:06:49;100188.84;;;26.26;53.57
41513;BME280;27244;59.940;30.280;2023-08-08T00:09:16;100183.81;;;26.21;54.39
41513;BME280;27244;59.940;30.280;2023-08-08T00:11:44;100184.44;;;26.25;53.86
41513;BME280;27244;59.940;30.280;2023-08-08T00:14:12;100192.94;;;26.25;54.63
41513;BME280;27244;59.940;30.280;2023-08-08T00:16:39;100180.03;;;26.24;54.77
41513;BME280;27244;59.940;30.280;2023-08-08T00:19:06;100179.75;;;26.22;55.25
41513;BME280;27244;59.940;30.280;2023-08-08T00:21:33;100186.47;;;26.24;54.87
41513;BME280;27244;59.940;30.280;2023-08-08T00:24:00;100187.28;;;26.25;54.58
41513;BME280;27244;59.940;30.280;2023-08-08T00:26:28;100156.03;;;26.10;54.92
41513;BME280;27244;59.940;30.280;2023-08-08T00:28:56;100181.63;;;26.25;54.70
41513;BME280;27244;59.940;30.280;2023-08-08T00:31:23;100185.22;;;26.25;55.65
41513;BME280;27244;59.940;30.280;2023-08-08T00:33:51;100156.31;;;26.12;54.77
41513;BME280;27244;59.940;30.280;2023-08-08T00:36:18;100164.31;;;26.23;54.43
41513;BME280;27244;59.940;30.280;2023-08-08T00:38:45;100163.75;;;26.19;54.51
41513;BME280;27244;59.940;30.280;2023-08-08T00:41:12;100171.72;;;26.20;54.24
41513;BME280;27244;59.940;30.280;2023-08-08T00:43:39;100166.22;;;26.17;54.54
41513;BME280;27244;59.940;30.280;2023-08-08T00:46:11;100164.03;;;26.21;54.44
41513;BME280;27244;59.940;30.280;2023-08-08T00:48:38;100152.72;;;26.12;54.35
41513;BME280;27244;59.940;30.280;2023-08-08T00:51:08;100168.09;;;26.20;54.45
41513;BME280;27244;59.940;30.280;2023-08-08T00:53:35;100168.09;;;26.20;54.77
41513;BME280;27244;59.940;30.280;2023-08-08T00:56:13;100168.09;;;26.29;54.25
41513;BME280;27244;59.940;30.280;2023-08-08T00:58:45;100165.28;;;26.20;54.26
41513;BME280;27244;59.940;30.280;2023-08-08T01:01:18;100150.84;;;26.18;54.56
41513;BME280;27244;59.940;30.280;2023-08-08T01:03:48;100177.38;;;26.20;54.08
41513;BME280;27244;59.940;30.280;2023-08-08T01:06:23;100152.84;;;26.26;54.10
41513;BME280;27244;59.940;30.280;2023-08-08T01:08:57;100167.16;;;26.23;54.24
41513;BME280;27244;59.940;30.280;2023-08-08T01:11:25;100154.59;;;26.15;53.91
41513;BME280;27244;59.940;30.280;2023-08-08T01:13:55;100152.06;;;26.17;54.08
41513;BME280;27244;59.940;30.280;2023-08-08T01:16:26;100147.38;;;26.23;54.12
41513;BME280;27244;59.940;30.280;2023-08-08T01:18:55;100159.63;;;26.20;53.89
41513;BME280;27244;59.940;30.280;2023-08-08T01:21:27;100150.84;;;26.18;53.72
41513;BME280;27244;59.940;30.280;2023-08-08T01:26:35;100122.59;;;26.18;53.92
41513;BME280;27244;59.940;30.280;2023-08-08T01:29:02;100118.50;;;26.19;53.51
41513;BME280;27244;59.940;30.280;2023-08-08T01:31:29;100108.25;;;26.12;53.59
41513;BME280;27244;59.940;30.280;2023-08-08T01:33:56;100116.75;;;26.12;53.88
41513;BME280;27244;59.940;30.280;2023-08-08T01:36:30;100102.31;;;26.10;54.12
41513;BME280;27244;59.940;30.280;2023-08-08T01:39:02;100118.50;;;26.19;53.81
41513;BME280;27244;59.940;30.280;2023-08-08T01:41:32;100124.16;;;26.19;53.87
41513;BME280;27244;59.940;30.280;2023-08-08T01:44:02;100114.41;;;26.20;53.42
41513;BME280;27244;59.940;30.280;2023-08-08T01:46:29;100121.66;;;26.12;53.68
41513;BME280;27244;59.940;30.280;2023-08-08T01:48:57;100105.94;;;26.11;53.57
41513;BME280;27244;59.940;30.280;2023-08-08T01:51:26;100116.94;;;26.18;53.49
41513;BME280;27244;59.940;30.280;2023-08-08T01:53:53;100097.13;;;26.09;53.01
41513;BME280;27244;59.940;30.280;2023-08-08T01:56:22;100099.16;;;26.08;53.61
41513;BME280;27244;59.940;30.280;2023-08-08T01:58:49;100110.47;;;26.17;53.53
41513;BME280;27244;59.940;30.280;2023-08-08T02:01:18;100095.41;;;26.11;53.67
41513;BME280;27244;59.940;30.280;2023-08-08T02:03:45;100113.00;;;26.15;53.63
41513;BME280;27244;59.940;30.280;2023-08-08T02:06:12;100110.16;;;26.15;53.53
41513;BME280;27244;59.940;30.280;2023-08-08T02:08:39;100105.31;;;26.07;53.62
41513;BME280;27244;59.940;30.280;2023-08-08T02:11:06;100115.03;;;26.15;53.70
41513;BME280;27244;59.940;30.280;2023-08-08T02:13:33;100127.28;;;26.12;53.64
41513;BME280;27244;59.940;30.280;2023-08-08T02:16:00;100124.16;;;26.19;53.60
41513;BME280;27244;59.940;30.280;2023-08-08T02:18:31;100091.66;;;26.05;53.48
41513;BME280;27244;59.940;30.280;2023-08-08T02:20:58;100116.19;;;26.41;53.37
41513;BME280;27244;59.940;30.280;2023-08-08T02:23:30;100092.59;;;26.11;53.63
41513;BME280;27244;59.940;30.280;2023-08-08T02:25:57;100118.00;;;26.20;53.35
41513;BME280;27244;59.940;30.280;2023-08-08T02:28:27;100106.88;;;26.08;53.63
41513;BME280;27244;59.940;30.280;2023-08-08T02:30:54;100104.34;;;26.10;53.54
41513;BME280;27244;59.940;30.280;2023-08-08T02:33:25;100077.69;;;26.02;53.57
41513;BME280;27244;59.940;30.280;2023-08-08T02:35:54;100107.19;;;26.19;53.29
41513;BME280;27244;59.940;30.280;2023-08-08T02:38:21;100106.41;;;26.18;53.52
41513;BME280;27244;59.940;30.280;2023-08-08T02:40:48;100110.03;;;26.19;53.75
41513;BME280;27244;59.940;30.280;2023-08-08T02:43:16;100092.75;;;26.08;53.55
41513;BME280;27244;59.940;30.280;2023-08-08T02:45:43;100085.53;;;26.07;53.60
41513;BME280;27244;59.940;30.280;2023-08-08T02:48:10;100091.50;;;26.18;53.44
41513;BME280;27244;59.940;30.280;2023-08-08T02:50:40;100100.59;;;26.22;53.72
41513;BME280;27244;59.940;30.280;2023-08-08T02:53:09;100082.06;;;26.12;53.55
41513;BME280;27244;59.940;30.280;2023-08-08T02:55:41;100086.63;;;26.18;53.72
41513;BME280;27244;59.940;30.280;2023-08-08T02:58:08;100091.78;;;26.20;53.67
41513;BME280;27244;59.940;30.280;2023-08-08T03:00:36;100078.91;;;26.10;53.55
41513;BME280;27244;59.940;30.280;2023-08-08T03:03:04;100095.41;;;26.20;53.43
41513;BME280;27244;59.940;30.280;2023-08-08T03:05:32;100100.25;;;26.20;53.09
41513;BME280;27244;59.940;30.280;2023-08-08T03:08:00;100096.19;;;26.21;53.37
41513;BME280;27244;59.940;30.280;2023-08-08T03:10:29;100089.31;;;26.04;53.40
41513;BME280;27244;59.940;30.280;2023-08-08T03:12:55;100094.44;;;26.14;52.97
41513;BME280;27244;59.940;30.280;2023-08-08T03:15:23;100098.72;;;26.19;53.23
41513;BME280;27244;59.940;30.280;2023-08-08T03:17:50;100093.06;;;26.19;53.16
41513;BME280;27244;59.940;30.280;2023-08-08T03:20:20;100088.16;;;26.19;53.31
41513;BME280;27244;59.940;30.280;2023-08-08T03:22:47;100096.97;;;26.21;53.18
41513;BME280;27244;59.940;30.280;2023-08-08T03:25:14;100105.44;;;26.21;53.03
41513;BME280;27244;59.940;30.280;2023-08-08T03:27:43;100084.91;;;26.12;53.14
41513;BME280;27244;59.940;30.280;2023-08-08T03:30:13;100100.31;;;26.43;53.11
41513;BME280;27244;59.940;30.280;2023-08-08T03:32:44;100105.28;;;26.25;53.12
41513;BME280;27244;59.940;30.280;2023-08-08T03:35:11;100112.84;;;26.19;52.99
41513;BME280;27244;59.940;30.280;2023-08-08T03:37:40;100082.81;;;26.12;52.91
41513;BME280;27244;59.940;30.280;2023-08-08T03:40:08;100091.78;;;26.11;53.35
41513;BME280;27244;59.940;30.280;2023-08-08T03:42:35;100088.66;;;26.09;52.92
41513;BME280;27244;59.940;30.280;2023-08-08T03:45:04;100082.53;;;26.10;52.91
41513;BME280;27244;59.940;30.280;2023-08-08T03:47:32;100091.63;;;26.14;53.00
41513;BME280;27244;59.940;30.280;2023-08-08T03:49:59;100105.91;;;26.20;52.92
41513;BME280;27244;59.940;30.280;2023-08-08T03:52:26;100096.19;;;26.21;52.86
41513;BME280;27244;59.940;30.280;2023-08-08T03:54:53;100089.75;;;26.20;53.11
41513;BME280;27244;59.940;30.280;2023-08-08T03:57:21;100093.19;;;26.15;52.61
41513;BME280;27244;59.940;30.280;2023-08-08T03:59:48;100092.28;;;26.18;52.80
41513;BME280;27244;59.940;30.280;2023-08-08T04:02:17;100105.13;;;26.19;52.68
41513;BME280;27244;59.940;30.280;2023-08-08T04:04:44;100084.56;;;26.10;53.16
41513;BME280;27244;59.940;30.280;2023-08-08T04:07:12;100080.16;;;26.09;52.66
41513;BME280;27244;59.940;30.280;2023-08-08T04:09:39;100076.09;;;26.10;52.64
41513;BME280;27244;59.940;30.280;2023-08-08T04:12:08;100079.53;;;26.14;53.23
41513;BME280;27244;59.940;30.280;2023-08-08T04:14:35;100076.72;;;26.14;53.51
41513;BME280;27244;59.940;30.280;2023-08-08T04:17:03;100097.56;;;26.16;53.27
41513;BME280;27244;59.940;30.280;2023-08-08T04:19:31;100093.06;;;26.19;53.70
41513;BME280;27244;59.940;30.280;2023-08-08T04:21:59;100092.72;;;26.17;53.40
41513;BME280;27244;59.940;30.280;2023-08-08T04:24:26;100102.44;;;26.16;52.92
41513;BME280;27244;59.940;30.280;2023-08-08T04:26:53;100089.16;;;26.07;53.27
41513;BME280;27244;59.940;30.280;2023-08-08T04:29:20;100076.53;;;26.17;53.76
41513;BME280;27244;59.940;30.280;2023-08-08T04:31:47;100087.06;;;26.17;53.73
41513;BME280;27244;59.940;30.280;2023-08-08T04:34:14;100096.78;;;26.16;53.54
41513;BME280;27244;59.940;30.280;2023-08-08T04:36:44;100092.88;;;26.13;53.55
41513;BME280;27244;59.940;30.280;2023-08-08T04:39:11;100097.91;;;26.09;53.77
41513;BME280;27244;59.940;30.280;2023-08-08T04:41:38;100117.38;;;26.16;53.53
41513;BME280;27244;59.940;30.280;2023-08-08T04:44:05;100124.31;;;26.15;54.10
41513;BME280;27244;59.940;30.280;2023-08-08T04:46:33;100134.81;;;26.15;53.67
41513;BME280;27244;59.940;30.280;2023-08-08T04:49:00;100130.72;;;26.16;53.67
41513;BME280;27244;59.940;30.280;2023-08-08T04:51:27;100110.19;;;26.06;53.40
41513;BME280;27244;59.940;30.280;2023-08-08T04:53:55;100122.28;;;26.07;53.40
41513;BME280;27244;59.940;30.280;2023-08-08T04:56:22;100123.97;;;26.13;53.02
41513;BME280;27244;59.940;30.280;2023-08-08T04:58:49;100117.41;;;26.07;53.72
41513;BME280;27244;59.940;30.280;2023-08-08T05:01:16;100144.84;;;26.16;53.19
41513;BME280;27244;59.940;30.280;2023-08-08T05:03:48;100134.69;;;26.18;52.90
41513;BME280;27244;59.940;30.280;2023-08-08T05:06:16;100142.03;;;26.16;53.17
41513;BME280;27244;59.940;30.280;2023-08-08T05:08:43;100157.09;;;26.13;53.29
41513;BME280;27244;59.940;30.280;2023-08-08T05:11:11;100153.81;;;26.14;53.81
41513;BME280;27244;59.940;30.280;2023-08-08T05:13:38;100139.88;;;26.02;55.94
41513;BME280;27244;59.940;30.280;2023-08-08T05:16:06;100166.88;;;26.12;54.79
41513;BME280;27244;59.940;30.280;2023-08-08T05:18:33;100174.41;;;26.15;55.39
41513;BME280;27244;59.940;30.280;2023-08-08T05:21:00;100194.19;;;26.15;55.57
41513;BME280;27244;59.940;30.280;2023-08-08T05:23:27;100191.34;;;26.15;55.22
41513;BME280;27244;59.940;30.280;2023-08-08T05:25:54;100210.66;;;26.16;56.04
41513;BME280;27244;59.940;30.280;2023-08-08T05:28:22;100227.97;;;26.18;55.83
41513;BME280;27244;59.940;30.280;2023-08-08T05:30:51;100219.16;;;26.07;56.21
41513;BME280;27244;59.940;30.280;2023-08-08T05:33:21;100235.66;;;26.18;56.03
41513;BME280;27244;59.940;30.280;2023-08-08T05:35:48;100224.81;;;26.07;55.53
41513;BME280;27244;59.940;30.280;2023-08-08T05:38:15;100234.56;;;26.15;56.10
41513;BME280;27244;59.940;30.280;2023-08-08T05:40:42;100232.47;;;26.16;56.22
41513;BME280;27244;59.940;30.280;2023-08-08T05:43:11;100227.63;;;26.16;56.45
41513;BME280;27244;59.940;30.280;2023-08-08T05:45:44;100228.75;;;26.19;56.48
41513;BME280;27244;59.940;30.280;2023-08-08T05:48:11;100230.44;;;26.16;56.68
41513;BME280;27244;59.940;30.280;2023-08-08T05:50:41;100220.88;;;26.14;56.49
41513;BME280;27244;59.940;30.280;2023-08-08T05:53:11;100203.91;;;26.14;56.17
41513;BME280;27244;59.940;30.280;2023-08-08T05:55:40;100205.50;;;26.15;56.50
41513;BME280;27244;59.940;30.280;2023-08-08T05:58:07;100200.63;;;26.06;57.00
41513;BME280;27244;59.940;30.280;2023-08-08T06:00:34;100200.00;;;26.02;56.66
41513;BME280;27244;59.940;30.280;2023-08-08T06:03:03;100221.97;;;26.16;56.62
41513;BME280;27244;59.940;30.280;2023-08-08T06:05:31;100203.31;;;26.01;56.85
41513;BME280;27244;59.940;30.280;2023-08-08T06:07:58;100218.50;;;26.12;56.86
41513;BME280;27244;59.940;30.280;2023-08-08T06:10:29;100214.31;;;26.08;56.79
41513;BME280;27244;59.940;30.280;2023-08-08T06:12:56;100220.41;;;26.06;57.58
41513;BME280;27244;59.940;30.280;2023-08-08T06:15:23;100229.34;;;26.14;56.83
41513;BME280;27244;59.940;30.280;2023-08-08T06:17:52;100231.88;;;26.12;57.13
41513;BME280;27244;59.940;30.280;2023-08-08T06:20:20;100229.69;;;26.07;57.16
41513;BME280;27244;59.940;30.280;2023-08-08T06:22:50;100235.66;;;26.18;56.89
41513;BME280;27244;59.940;30.280;2023-08-08T06:25:17;100221.97;;;26.16;57.03
41513;BME280;27244;59.940;30.280;2023-08-08T06:27:44;100241.75;;;26.16;56.88
41513;BME280;27244;59.940;30.280;2023-08-08T06:30:11;100238.13;;;26.16;57.41
41513;BME280;27244;59.940;30.280;2023-08-08T06:32:38;100246.31;;;26.14;57.01
41513;BME280;27244;59.940;30.280;2023-08-08T06:35:06;100248.53;;;26.10;57.00
41513;BME280;27244;59.940;30.280;2023-08-08T06:37:35;100257.00;;;26.10;57.28
41513;BME280;27244;59.940;30.280;2023-08-08T06:40:02;100261.53;;;26.16;57.27
41513;BME280;27244;59.940;30.280;2023-08-08T06:42:30;100253.06;;;26.16;57.01
41513;BME280;27244;59.940;30.280;2023-08-08T06:45:00;100241.28;;;26.09;57.56
41513;BME280;27244;59.940;30.280;2023-08-08T06:47:27;100251.19;;;26.13;57.44
41513;BME280;27244;59.940;30.280;2023-08-08T06:49:54;100251.34;;;26.10;56.99
41513;BME280;27244;59.940;30.280;2023-08-08T06:52:21;100267.97;;;26.17;57.39
41513;BME280;27244;59.940;30.280;2023-08-08T06:54:50;100265.94;;;26.17;57.10
41513;BME280;27244;59.940;30.280;2023-08-08T06:57:17;100276.16;;;26.15;57.09
41513;BME280;27244;59.940;30.280;2023-08-08T06:59:44;100280.53;;;26.16;57.16
41513;BME280;27244;59.940;30.280;2023-08-08T07:02:16;100278.19;;;26.14;57.17
41513;BME280;27244;59.940;30.280;2023-08-08T07:04:46;100276.34;;;26.20;57.25
41513;BME280;27244;59.940;30.280;2023-08-08T07:07:13;100263.94;;;26.00;57.44
41513;BME280;27244;59.940;30.280;2023-08-08T07:09:40;100290.31;;;26.15;57.11
41513;BME280;27244;59.940;30.280;2023-08-08T07:12:10;100296.25;;;26.17;57.06
41513;BME280;27244;59.940;30.280;2023-08-08T07:14:37;100295.63;;;26.13;56.97
41513;BME280;27244;59.940;30.280;2023-08-08T07:17:04;100298.16;;;26.11;57.14
41513;BME280;27244;59.940;30.280;2023-08-08T07:19:31;100308.50;;;26.14;57.16
41513;BME280;27244;59.940;30.280;2023-08-08T07:21:58;100303.94;;;26.16;57.08
41513;BME280;27244;59.940;30.280;2023-08-08T07:24:26;100303.19;;;26.07;57.14
41513;BME280;27244;59.940;30.280;2023-08-08T07:26:54;100312.28;;;26.11;56.97
41513;BME280;27244;59.940;30.280;2023-08-08T07:29:22;100327.34;;;26.17;56.99
41513;BME280;27244;59.940;30.280;2023-08-08T07:31:51;100324.22;;;26.15;56.83
41513;BME280;27244;59.940;30.280;2023-08-08T07:34:19;100323.91;;;26.13;56.98
41513;BME280;27244;59.940;30.280;2023-08-08T07:36:46;100328.47;;;26.10;57.29
41513;BME280;27244;59.940;30.280;2023-08-08T07:39:13;100319.66;;;26.08;57.28
41513;BME280;27244;59.940;30.280;2023-08-08T07:41:41;100331.91;;;26.14;56.90
41513;BME280;27244;59.940;30.280;2023-08-08T07:44:08;100309.94;;;26.00;56.75
41513;BME280;27244;59.940;30.280;2023-08-08T07:46:36;100331.91;;;26.14;56.84
41513;BME280;27244;59.940;30.280;2023-08-08T07:49:03;100331.13;;;26.14;56.68
41513;BME280;27244;59.940;30.280;2023-08-08T07:51:32;100332.38;;;26.13;56.47
41513;BME280;27244;59.940;30.280;2023-08-08T07:53:59;100320.59;;;26.05;56.49
41513;BME280;27244;59.940;30.280;2023-08-08T07:56:27;100308.81;;;26.07;56.46
41513;BME280;27244;59.940;30.280;2023-08-08T07:58:54;100329.09;;;26.14;56.44
41513;BME280;27244;59.940;30.280;2023-08-08T08:01:21;100320.28;;;26.12;56.18
41513;BME280;27244;59.940;30.280;2023-08-08T08:04:02;100319.06;;;26.22;56.06
41513;BME280;27244;59.940;30.280;2023-08-08T08:06:29;100327.06;;;26.15;56.22
41513;BME280;27244;59.940;30.280;2023-08-08T08:08:57;100336.78;;;26.14;55.98
41513;BME280;27244;59.940;30.280;2023-08-08T08:11:24;100332.38;;;26.13;55.82
41513;BME280;27244;59.940;30.280;2023-08-08T08:13:51;100342.91;;;26.12;55.94
41513;BME280;27244;59.940;30.280;2023-08-08T08:16:18;100343.22;;;26.14;55.87
41513;BME280;27244;59.940;30.280;2023-08-08T08:18:45;100353.75;;;26.14;56.00
41513;BME280;27244;59.940;30.280;2023-08-08T08:21:14;100350.63;;;26.12;55.71
41513;BME280;27244;59.940;30.280;2023-08-08T08:23:43;100366.78;;;26.11;55.74
41513;BME280;27244;59.940;30.280;2023-08-08T08:26:10;100388.13;;;26.12;55.73
41513;BME280;27244;59.940;30.280;2023-08-08T08:28:37;100393.16;;;26.08;55.75
41513;BME280;27244;59.940;30.280;2023-08-08T08:31:06;100401.50;;;26.12;55.42
41513;BME280;27244;59.940;30.280;2023-08-08T08:33:34;100392.34;;;25.99;55.62
41513;BME280;27244;59.940;30.280;2023-08-08T08:36:01;100410.59;;;26.07;55.37
41513;BME280;27244;59.940;30.280;2023-08-08T08:38:30;100428.03;;;26.14;55.28
41513;BME280;27244;59.940;30.280;2023-08-08T08:41:06;100413.41;;;26.07;55.45
41513;BME280;27244;59.940;30.280;2023-08-08T08:43:38;100421.28;;;26.12;55.41
41513;BME280;27244;59.940;30.280;2023-08-08T08:46:06;100421.91;;;26.07;55.25
41513;BME280;27244;59.940;30.280;2023-08-08T08:48:35;100425.50;;;26.07;55.12
41513;BME280;27244;59.940;30.280;2023-08-08T08:51:03;100428.50;;;26.04;55.24
41513;BME280;27244;59.940;30.280;2023-08-08T08:53:33;100434.94;;;26.13;55.31
41513;BME280;27244;59.940;30.280;2023-08-08T08:56:05;100443.13;;;26.11;55.48
41513;BME280;27244;59.940;30.280;2023-08-08T08:58:32;100443.25;;;26.08;55.26
41513;BME280;27244;59.940;30.280;2023-08-08T09:01:00;100439.16;;;26.00;55.19
41513;BME280;27244;59.940;30.280;2023-08-08T09:03:27;100457.06;;;26.06;55.29
41513;BME280;27244;59.940;30.280;2023-08-08T09:05:54;100456.41;;;26.02;54.92
41513;BME280;27244;59.940;30.280;2023-08-08T09:08:24;100462.91;;;26.11;54.97
41513;BME280;27244;59.940;30.280;2023-08-08T09:10:52;100462.13;;;26.11;54.71
41513;BME280;27244;59.940;30.280;2023-08-08T09:13:21;100448.09;;;25.98;54.45
41513;BME280;27244;59.940;30.280;2023-08-08T09:15:48;100467.75;;;26.11;54.52
41513;BME280;27244;59.940;30.280;2023-08-08T09:18:15;100472.63;;;26.10;54.38
41513;BME280;27244;59.940;30.280;2023-08-08T09:20:47;100470.91;;;26.13;54.65
41513;BME280;27244;59.940;30.280;2023-08-08T09:23:15;100489.13;;;26.12;54.08
41513;BME280;27244;59.940;30.280;2023-08-08T09:25:42;100486.75;;;26.10;54.32
41513;BME280;27244;59.940;30.280;2023-08-08T09:28:10;100495.25;;;26.10;54.52
41513;BME280;27244;59.940;30.280;2023-08-08T09:30:37;100494.91;;;26.08;54.10
41513;BME280;27244;59.940;30.280;2023-08-08T09:33:06;100490.97;;;25.97;54.22
41513;BME280;27244;59.940;30.280;2023-08-08T09:35:33;100501.84;;;26.07;53.72
41513;BME280;27244;59.940;30.280;2023-08-08T09:38:00;100499.63;;;26.02;54.15
41513;BME280;27244;59.940;30.280;2023-08-08T09:40:27;100512.22;;;26.10;54.20
41513;BME280;27244;59.940;30.280;2023-08-08T09:42:56;100520.22;;;26.12;54.14
41513;BME280;27244;59.940;30.280;2023-08-08T09:45:25;100512.34;;;26.07;53.90
41513;BME280;27244;59.940;30.280;2023-08-08T09:47:52;100523.66;;;26.07;53.43
41513;BME280;27244;59.940;30.280;2023-08-08T09:50:19;100526.16;;;26.05;53.14
41513;BME280;27244;59.940;30.280;2023-08-08T09:52:47;100525.84;;;26.03;53.04
41513;BME280;27244;59.940;30.280;2023-08-08T09:55:14;100535.91;;;26.04;52.69
41513;BME280;27244;59.940;30.280;2023-08-08T09:57:42;100537.94;;;26.03;52.87
41513;BME280;27244;59.940;30.280;2023-08-08T10:00:10;100540.28;;;26.05;52.70
41513;BME280;27244;59.940;30.280;2023-08-08T10:02:43;100547.84;;;26.08;52.75
41513;BME280;27244;59.940;30.280;2023-08-08T10:05:12;100543.09;;;26.05;52.69
41513;BME280;27244;59.940;30.280;2023-08-08T10:07:39;100551.72;;;26.01;52.57
41513;BME280;27244;59.940;30.280;2023-08-08T10:10:09;100546.88;;;26.02;52.47
41513;BME280;27244;59.940;30.280;2023-08-08T10:12:37;100547.22;;;26.04;52.85
41513;BME280;27244;59.940;30.280;2023-08-08T10:15:07;100547.06;;;26.07;52.59
41513;BME280;27244;59.940;30.280;2023-08-08T10:17:37;100555.53;;;26.07;52.16
41513;BME280;27244;59.940;30.280;2023-08-08T10:20:08;100543.25;;;26.01;52.63
41513;BME280;27244;59.940;30.280;2023-08-08T10:22:37;100539.16;;;25.93;52.39
41513;BME280;27244;59.940;30.280;2023-08-08T10:25:09;100545.91;;;25.95;51.86
41513;BME280;27244;59.940;30.280;2023-08-08T10:27:36;100544.34;;;25.94;52.68
41513;BME280;27244;59.940;30.280;2023-08-08T10:30:07;100550.63;;;25.99;52.36
41513;BME280;27244;59.940;30.280;2023-08-08T10:32:40;100560.72;;;26.09;52.27
41513;BME280;27244;59.940;30.280;2023-08-08T10:35:11;100539.97;;;25.93;52.35
41513;BME280;27244;59.940;30.280;2023-08-08T10:37:39;100576.72;;;26.03;52.51
41513;BME280;27244;59.940;30.280;2023-08-08T10:40:07;100557.22;;;25.95;52.61
41513;BME280;27244;59.940;30.280;2023-08-08T10:42:44;100574.84;;;26.09;52.53
41513;BME280;27244;59.940;30.280;2023-08-08T10:45:13;100571.22;;;25.99;52.46
41513;BME280;27244;59.940;30.280;2023-08-08T10:47:43;100575.78;;;26.06;52.35
41513;BME280;27244;59.940;30.280;2023-08-08T10:50:14;100556.56;;;25.91;52.52
41513;BME280;27244;59.940;30.280;2023-08-08T10:52:52;100562.28;;;26.01;52.69
41513;BME280;27244;59.940;30.280;2023-08-08T10:55:20;100584.41;;;26.02;52.89
41513;BME280;27244;59.940;30.280;2023-08-08T10:57:54;100584.25;;;26.06;52.56
41513;BME280;27244;59.940;30.280;2023-08-08T11:00:24;100596.19;;;26.01;53.00
41513;BME280;27244;59.940;30.280;2023-08-08T11:02:53;100598.09;;;26.04;52.63
41513;BME280;27244;59.940;30.280;2023-08-08T11:05:23;100599.34;;;26.03;52.58
41513;BME280;27244;59.940;30.280;2023-08-08T11:07:52;100596.47;;;25.93;52.30
41513;BME280;27244;59.940;30.280;2023-08-08T11:10:21;100604.97;;;25.93;52.26
41513;BME280;27244;59.940;30.280;2023-08-08T11:12:59;100607.53;;;26.10;52.57
41513;BME280;27244;59.940;30.280;2023-08-08T11:15:26;100621.94;;;26.03;52.21
41513;BME280;27244;59.940;30.280;2023-08-08T11:17:55;100619.13;;;26.03;52.53
41513;BME280;27244;59.940;30.280;2023-08-08T11:20:24;100617.03;;;25.94;52.35
41513;BME280;27244;59.940;30.280;2023-08-08T11:22:52;100633.25;;;26.03;52.27
41513;BME280;27244;59.940;30.280;2023-08-08T11:25:20;100631.66;;;26.02;52.57
41513;BME280;27244;59.940;30.280;2023-08-08T11:27:51;100630.28;;;26.06;52.23
41513;BME280;27244;59.940;30.280;2023-08-08T11:30:18;100624.13;;;25.99;52.39
41513;BME280;27244;59.940;30.280;2023-08-08T11:32:47;100625.56;;;26.03;52.25
41513;BME280;27244;59.940;30.280;2023-08-08T11:35:16;100607.03;;;26.02;52.46
41513;BME280;27244;59.940;30.280;2023-08-08T11:37:45;100620.19;;;25.96;52.27
41513;BME280;27244;59.940;30.280;2023-08-08T11:40:13;100628.84;;;26.02;52.23
41513;BME280;27244;59.940;30.280;2023-08-08T11:42:41;100631.34;;;26.00;52.27
41513;BME280;27244;59.940;30.280;2023-08-08T11:45:11;100635.44;;;25.99;52.34
41513;BME280;27244;59.940;30.280;2023-08-08T11:47:39;100636.22;;;25.99;52.68
41513;BME280;27244;59.940;30.280;2023-08-08T11:50:08;100627.56;;;25.93;52.95
41513;BME280;27244;59.940;30.280;2023-08-08T11:52:39;100640.94;;;26.02;52.89
41513;BME280;27244;59.940;30.280;2023-08-08T11:55:08;100643.19;;;26.07;52.63
41513;BME280;27244;59.940;30.280;2023-08-08T11:57:37;100623.75;;;25.87;52.75
41513;BME280;27244;59.940;30.280;2023-08-08T12:00:06;100648.97;;;26.04;52.81
41513;BME280;27244;59.940;30.280;2023-08-08T12:02:42;100655.41;;;26.04;53.31
41513;BME280;27244;59.940;30.280;2023-08-08T12:05:12;100648.31;;;26.00;53.50
41513;BME280;27244;59.940;30.280;2023-08-08T12:07:40;100650.53;;;26.05;53.59
41513;BME280;27244;59.940;30.280;2023-08-08T12:10:15;100658.41;;;26.10;53.49
41513;BME280;27244;59.940;30.280;2023-08-08T12:12:43;100650.81;;;25.98;53.30
41513;BME280;27244;59.940;30.280;2023-08-08T12:15:10;100643.06;;;25.89;53.38
41513;BME280;27244;59.940;30.280;2023-08-08T12:17:38;100666.25;;;26.06;53.25
41513;BME280;27244;59.940;30.280;2023-08-08T12:20:07;100653.97;;;26.00;53.04
41513;BME280;27244;59.940;30.280;2023-08-08T12:22:35;100665.00;;;26.07;52.80
41513;BME280;27244;59.940;30.280;2023-08-08T12:25:02;100655.69;;;25.97;53.12
41513;BME280;27244;59.940;30.280;2023-08-08T12:27:31;100675.97;;;26.05;53.13
41513;BME280;27244;59.940;30.280;2023-08-08T12:29:58;100679.59;;;26.05;52.47
41513;BME280;27244;59.940;30.280;2023-08-08T12:32:26;100659.09;;;25.92;53.02
41513;BME280;27244;59.940;30.280;2023-08-08T12:34:54;100676.31;;;26.07;52.56
41513;BME280;27244;59.940;30.280;2023-08-08T12:37:22;100665.94;;;26.04;52.82
41513;BME280;27244;59.940;30.280;2023-08-08T12:39:50;100671.91;;;26.06;52.75
41513;BME280;27244;59.940;30.280;2023-08-08T12:42:17;100665.28;;;26.00;52.86
41513;BME280;27244;59.940;30.280;2023-08-08T12:44:46;100668.91;;;26.00;53.19
41513;BME280;27244;59.940;30.280;2023-08-08T12:47:17;100677.91;;;26.08;53.00
41513;BME280;27244;59.940;30.280;2023-08-08T12:49:44;100688.41;;;26.07;53.06